createdAt,value
2017-12-30T00:00:26.404Z,988.45
2017-12-30T00:02:19.455Z,988.47
2017-12-30T00:03:19.359Z,988.45
2017-12-30T00:05:12.372Z,988.44
2017-12-30T00:06:12.377Z,988.36
2017-12-30T00:08:05.367Z,988.53
2017-12-30T00:09:05.267Z,988.46
2017-12-30T00:10:58.184Z,988.51
2017-12-30T00:11:58.118Z,988.50
2017-12-30T00:13:51.167Z,988.60
2017-12-30T00:14:51.072Z,988.52
2017-12-30T00:16:43.986Z,988.63
2017-12-30T00:17:43.979Z,988.69
2017-12-30T00:19:36.804Z,988.53
2017-12-30T00:20:36.769Z,988.58
2017-12-30T00:22:29.821Z,988.61
2017-12-30T00:23:29.629Z,988.70
2017-12-30T00:25:22.506Z,988.67
2017-12-30T00:26:22.533Z,988.57
2017-12-30T00:28:15.385Z,988.61
2017-12-30T00:29:15.383Z,988.73
2017-12-30T00:31:08.271Z,988.74
2017-12-30T00:32:08.232Z,988.67
2017-12-30T00:34:01.225Z,988.79
2017-12-30T00:35:01.023Z,988.82
2017-12-30T00:36:53.972Z,988.78
2017-12-30T00:37:53.933Z,988.79
2017-12-30T00:39:46.921Z,988.74
2017-12-30T00:40:46.723Z,988.73
2017-12-30T00:42:39.604Z,988.83
2017-12-30T00:43:39.579Z,988.70
2017-12-30T00:45:32.525Z,988.61
2017-12-30T00:46:32.428Z,988.69
2017-12-30T00:48:25.373Z,988.64
2017-12-30T00:49:25.278Z,988.60
2017-12-30T00:51:18.222Z,988.64
2017-12-30T00:52:18.130Z,988.58
2017-12-30T00:54:11.071Z,988.60
2017-12-30T00:55:10.982Z,988.67
2017-12-30T00:57:04.024Z,988.61
2017-12-30T00:58:03.931Z,988.76
2017-12-30T00:59:56.911Z,988.72
2017-12-30T01:00:56.900Z,988.70
2017-12-30T01:02:49.937Z,988.69
2017-12-30T01:03:49.832Z,988.72
2017-12-30T01:05:42.816Z,988.73
2017-12-30T01:06:42.850Z,988.89
2017-12-30T01:08:35.943Z,988.79
2017-12-30T01:09:35.738Z,988.78
2017-12-30T01:11:28.719Z,988.76
2017-12-30T01:12:28.857Z,988.75
2017-12-30T01:14:21.854Z,988.86
2017-12-30T01:15:21.646Z,988.89
2017-12-30T01:17:14.636Z,988.84
2017-12-30T01:18:14.597Z,988.93
2017-12-30T01:20:07.610Z,988.84
2017-12-30T01:21:07.551Z,988.82
2017-12-30T01:23:00.712Z,988.78
2017-12-30T01:24:00.504Z,988.72
2017-12-30T01:25:53.519Z,988.84
2017-12-30T01:26:53.623Z,988.79
2017-12-30T01:28:46.437Z,988.76
2017-12-30T01:29:46.575Z,988.73
2017-12-30T01:31:39.327Z,988.81
2017-12-30T01:32:39.422Z,988.80
2017-12-30T01:34:32.424Z,988.71
2017-12-30T01:35:32.217Z,988.69
2017-12-30T01:37:25.367Z,988.73
2017-12-30T01:38:25.164Z,988.76
2017-12-30T01:40:18.149Z,988.73
2017-12-30T01:41:18.120Z,988.75
2017-12-30T01:43:11.272Z,988.72
2017-12-30T01:44:11.070Z,988.67
2017-12-30T01:46:04.053Z,988.56
2017-12-30T01:47:04.204Z,988.58
2017-12-30T01:48:57.465Z,988.55
2017-12-30T01:49:57.145Z,988.56
2017-12-30T01:51:49.962Z,988.51
2017-12-30T01:52:49.933Z,988.54
2017-12-30T01:54:42.944Z,988.51
2017-12-30T01:55:42.883Z,988.56
2017-12-30T01:57:35.938Z,988.55
2017-12-30T01:58:35.839Z,988.55
2017-12-30T02:00:28.862Z,988.60
2017-12-30T02:01:28.793Z,988.64
2017-12-30T02:03:21.946Z,988.58
2017-12-30T02:04:21.740Z,988.51
2017-12-30T02:06:14.895Z,988.42
2017-12-30T02:07:14.695Z,988.45
2017-12-30T02:09:07.681Z,988.39
2017-12-30T02:10:07.815Z,988.35
2017-12-30T02:12:00.799Z,988.46
2017-12-30T02:13:00.597Z,988.36
2017-12-30T02:14:53.751Z,988.44
2017-12-30T02:15:53.553Z,988.44
2017-12-30T02:17:46.707Z,988.38
2017-12-30T02:18:46.671Z,988.28
2017-12-30T02:20:39.490Z,988.22
2017-12-30T02:21:39.454Z,988.23
2017-12-30T02:23:32.475Z,988.17
2017-12-30T02:24:32.405Z,988.13
2017-12-30T02:26:25.579Z,988.04
2017-12-30T02:27:25.360Z,987.98
2017-12-30T02:29:18.375Z,988.03
2017-12-30T02:30:18.485Z,988.06
2017-12-30T02:32:11.474Z,988.00
2017-12-30T02:33:11.270Z,988.01
2017-12-30T02:35:04.285Z,987.93
2017-12-30T02:36:04.386Z,988.00
2017-12-30T02:37:57.274Z,988.04
2017-12-30T02:38:57.175Z,988.06
2017-12-30T02:40:50.335Z,987.98
2017-12-30T02:41:50.129Z,988.07
2017-12-30T02:43:43.192Z,988.04
2017-12-30T02:44:43.077Z,988.06
2017-12-30T02:46:36.098Z,987.98
2017-12-30T02:47:36.036Z,987.93
2017-12-30T02:49:29.018Z,987.90
2017-12-30T02:50:29.017Z,987.82
2017-12-30T02:52:23.070Z,987.81
2017-12-30T02:53:21.940Z,987.81
2017-12-30T02:55:15.002Z,987.81
2017-12-30T02:56:14.897Z,987.79
2017-12-30T02:58:07.805Z,987.67
2017-12-30T02:59:07.743Z,987.59
2017-12-30T03:01:00.693Z,987.57
2017-12-30T03:02:00.599Z,987.52
2017-12-30T03:03:53.510Z,987.56
2017-12-30T03:04:53.442Z,987.49
2017-12-30T03:08:17.967Z,987.59
2017-12-30T03:09:17.942Z,987.51
2017-12-30T03:11:10.994Z,987.56
2017-12-30T03:12:10.795Z,987.45
2017-12-30T03:14:03.740Z,987.34
2017-12-30T03:15:03.644Z,987.34
2017-12-30T03:16:56.558Z,987.41
2017-12-30T03:17:56.493Z,987.49
2017-12-30T03:19:49.380Z,987.53
2017-12-30T03:20:49.348Z,987.52
2017-12-30T03:22:42.393Z,987.53
2017-12-30T03:23:42.194Z,987.47
2017-12-30T03:25:35.152Z,987.48
2017-12-30T03:26:35.044Z,987.43
2017-12-30T03:28:28.099Z,987.41
2017-12-30T03:29:27.894Z,987.40
2017-12-30T03:31:20.781Z,987.37
2017-12-30T03:32:20.750Z,987.44
2017-12-30T03:34:13.801Z,987.40
2017-12-30T03:35:13.597Z,987.42
2017-12-30T03:37:06.547Z,987.33
2017-12-30T03:38:06.452Z,987.36
2017-12-30T03:39:59.396Z,987.22
2017-12-30T03:40:59.294Z,987.29
2017-12-30T03:42:52.177Z,987.22
2017-12-30T03:43:52.214Z,987.21
2017-12-30T03:45:45.065Z,987.29
2017-12-30T03:46:45.002Z,987.20
2017-12-30T03:48:38.047Z,987.13
2017-12-30T03:49:37.950Z,987.17
2017-12-30T03:51:31.002Z,987.24
2017-12-30T03:52:30.897Z,987.20
2017-12-30T03:54:23.959Z,987.23
2017-12-30T03:55:23.851Z,987.19
2017-12-30T03:57:16.903Z,987.23
2017-12-30T03:58:16.809Z,987.12
2017-12-30T04:00:09.799Z,987.14
2017-12-30T04:01:09.927Z,987.11
2017-12-30T04:03:02.919Z,987.04
2017-12-30T04:04:02.876Z,987.00
2017-12-30T04:05:55.765Z,987.11
2017-12-30T04:06:55.569Z,987.07
2017-12-30T04:08:49.229Z,986.98
2017-12-30T04:09:49.192Z,986.93
2017-12-30T04:11:42.182Z,986.97
2017-12-30T04:12:41.982Z,986.93
2017-12-30T04:14:34.999Z,987.04
2017-12-30T04:15:34.934Z,987.02
2017-12-30T04:17:27.920Z,986.95
2017-12-30T04:18:27.881Z,986.89
2017-12-30T04:20:20.908Z,986.89
2017-12-30T04:21:20.841Z,986.93
2017-12-30T04:23:13.997Z,986.91
2017-12-30T04:24:13.792Z,986.89
2017-12-30T04:26:06.798Z,986.86
2017-12-30T04:27:06.743Z,986.80
2017-12-30T04:28:59.906Z,986.72
2017-12-30T04:29:59.694Z,986.77
2017-12-30T04:31:52.704Z,986.90
2017-12-30T04:32:52.816Z,986.91
2017-12-30T04:34:45.636Z,986.99
2017-12-30T04:35:45.600Z,987.04
2017-12-30T04:37:38.761Z,986.98
2017-12-30T04:38:38.557Z,987.01
2017-12-30T04:40:31.709Z,986.93
2017-12-30T04:41:31.510Z,986.98
2017-12-30T04:43:24.665Z,987.04
2017-12-30T04:44:24.460Z,987.00
2017-12-30T04:46:17.448Z,986.96
2017-12-30T04:47:17.420Z,987.00
2017-12-30T04:49:10.431Z,987.04
2017-12-30T04:50:10.368Z,986.99
2017-12-30T04:52:03.537Z,986.88
2017-12-30T04:53:03.321Z,986.88
2017-12-30T04:54:56.478Z,986.95
2017-12-30T04:55:56.277Z,986.96
2017-12-30T04:57:49.429Z,986.89
2017-12-30T04:58:49.229Z,987.03
2017-12-30T05:00:42.379Z,986.87
2017-12-30T05:01:42.181Z,986.79
2017-12-30T05:03:35.340Z,986.79
2017-12-30T05:04:35.131Z,986.76
2017-12-30T05:06:28.144Z,986.77
2017-12-30T05:07:28.084Z,986.77
2017-12-30T05:09:21.236Z,986.79
2017-12-30T05:10:21.039Z,986.78
2017-12-30T05:12:14.193Z,986.80
2017-12-30T05:13:14.153Z,986.79
2017-12-30T05:15:06.977Z,986.73
2017-12-30T05:16:06.940Z,986.76
2017-12-30T05:17:59.954Z,986.65
2017-12-30T05:18:59.893Z,986.57
2017-12-30T05:20:53.052Z,986.59
2017-12-30T05:21:52.846Z,986.56
2017-12-30T05:23:46.004Z,986.72
2017-12-30T05:24:45.805Z,986.70
2017-12-30T05:26:38.958Z,986.74
2017-12-30T05:27:38.755Z,986.73
2017-12-30T05:29:31.906Z,986.86
2017-12-30T05:30:31.708Z,986.78
2017-12-30T05:32:24.780Z,986.89
2017-12-30T05:33:24.657Z,986.84
2017-12-30T05:35:17.816Z,986.99
2017-12-30T05:36:17.633Z,987.00
2017-12-30T05:38:10.663Z,986.97
2017-12-30T05:39:10.566Z,986.97
2017-12-30T05:41:03.574Z,986.90
2017-12-30T05:42:03.544Z,986.87
2017-12-30T05:43:56.500Z,986.79
2017-12-30T05:44:56.535Z,986.92
2017-12-30T05:46:49.630Z,987.00
2017-12-30T05:47:49.420Z,986.98
2017-12-30T05:49:42.411Z,987.05
2017-12-30T05:50:42.378Z,987.03
2017-12-30T05:52:35.392Z,987.05
2017-12-30T05:53:35.329Z,987.03
2017-12-30T05:55:28.388Z,986.99
2017-12-30T05:56:28.279Z,986.86
2017-12-30T05:58:21.200Z,986.78
2017-12-30T05:59:21.195Z,986.65
2017-12-30T06:01:14.086Z,986.72
2017-12-30T06:02:13.988Z,986.61
2017-12-30T06:04:06.902Z,986.56
2017-12-30T06:05:06.872Z,986.53
2017-12-30T06:06:59.885Z,986.52
2017-12-30T06:07:59.767Z,986.48
2017-12-30T06:09:52.704Z,986.44
2017-12-30T06:10:52.699Z,986.42
2017-12-30T06:12:45.524Z,986.43
2017-12-30T06:13:45.550Z,986.45
2017-12-30T06:15:38.543Z,986.43
2017-12-30T06:16:38.340Z,986.37
2017-12-30T06:18:31.220Z,986.36
2017-12-30T06:19:31.194Z,986.26
2017-12-30T06:21:24.108Z,986.29
2017-12-30T06:22:24.041Z,986.25
2017-12-30T06:24:16.925Z,986.23
2017-12-30T06:25:16.953Z,986.20
2017-12-30T06:27:09.844Z,986.08
2017-12-30T06:28:09.739Z,986.04
2017-12-30T06:30:02.694Z,985.93
2017-12-30T06:31:02.596Z,985.78
2017-12-30T06:32:55.540Z,985.63
2017-12-30T06:33:55.443Z,985.58
2017-12-30T06:35:48.397Z,985.56
2017-12-30T06:36:48.295Z,985.66
2017-12-30T06:38:41.242Z,985.67
2017-12-30T06:39:41.146Z,985.59
2017-12-30T06:41:34.194Z,985.48
2017-12-30T06:42:34.097Z,985.41
2017-12-30T06:44:27.145Z,985.35
2017-12-30T06:45:27.048Z,985.38
2017-12-30T06:47:20.036Z,985.49
2017-12-30T06:48:19.998Z,985.56
2017-12-30T06:50:13.058Z,985.54
2017-12-30T06:51:12.952Z,985.50
2017-12-30T06:53:05.935Z,985.41
2017-12-30T06:54:06.072Z,985.23
2017-12-30T06:55:58.823Z,984.85
2017-12-30T06:56:58.762Z,984.70
2017-12-30T06:58:51.638Z,984.61
2017-12-30T06:59:51.670Z,984.48
2017-12-30T07:01:44.529Z,984.23
2017-12-30T07:02:44.462Z,984.22
2017-12-30T07:04:37.377Z,984.42
2017-12-30T07:05:37.311Z,984.45
2017-12-30T07:07:30.358Z,984.57
2017-12-30T07:08:30.267Z,984.60
2017-12-30T07:10:23.146Z,984.61
2017-12-30T07:11:23.176Z,984.53
2017-12-30T07:13:16.061Z,984.58
2017-12-30T07:14:15.970Z,984.53
2017-12-30T07:16:08.852Z,984.57
2017-12-30T07:17:08.877Z,984.52
2017-12-30T07:19:01.743Z,984.43
2017-12-30T07:20:01.765Z,984.32
2017-12-30T07:21:54.618Z,984.35
2017-12-30T07:22:54.576Z,984.33
2017-12-30T07:24:47.416Z,984.35
2017-12-30T07:25:47.428Z,984.17
2017-12-30T07:27:40.282Z,984.12
2017-12-30T07:28:40.221Z,984.08
2017-12-30T07:30:33.167Z,984.00
2017-12-30T07:31:33.077Z,983.98
2017-12-30T07:33:26.012Z,983.83
2017-12-30T07:34:25.922Z,983.75
2017-12-30T07:36:18.872Z,983.64
2017-12-30T07:37:18.791Z,983.74
2017-12-30T07:39:11.649Z,983.65
2017-12-30T07:40:11.681Z,983.52
2017-12-30T07:42:04.567Z,983.55
2017-12-30T07:43:04.474Z,983.60
2017-12-30T07:44:57.357Z,983.55
2017-12-30T07:45:57.317Z,983.63
2017-12-30T07:47:50.246Z,983.57
2017-12-30T07:48:50.176Z,983.50
2017-12-30T07:50:43.054Z,983.63
2017-12-30T07:51:43.020Z,983.53
2017-12-30T07:53:35.932Z,983.51
2017-12-30T07:54:35.929Z,983.37
2017-12-30T07:56:28.758Z,983.29
2017-12-30T07:57:28.736Z,983.23
2017-12-30T07:59:21.635Z,983.13
2017-12-30T08:00:21.577Z,983.17
2017-12-30T08:02:14.523Z,983.00
2017-12-30T08:03:14.423Z,982.95
2017-12-30T08:05:07.339Z,982.94
2017-12-30T08:06:07.270Z,982.64
2017-12-30T08:08:00.152Z,982.75
2017-12-30T08:09:00.126Z,982.63
2017-12-30T08:10:53.042Z,982.61
2017-12-30T08:11:52.974Z,982.67
2017-12-30T08:13:45.925Z,982.60
2017-12-30T08:14:45.822Z,982.58
2017-12-30T08:16:38.789Z,982.45
2017-12-30T08:17:38.679Z,982.39
2017-12-30T08:19:32.068Z,982.42
2017-12-30T08:20:32.097Z,982.46
2017-12-30T08:22:24.958Z,982.41
2017-12-30T08:23:24.890Z,982.25
2017-12-30T08:25:17.842Z,982.33
2017-12-30T08:26:17.740Z,982.32
2017-12-30T08:28:10.688Z,982.17
2017-12-30T08:29:10.588Z,981.86
2017-12-30T08:31:03.482Z,981.81
2017-12-30T08:32:03.445Z,981.91
2017-12-30T08:33:56.354Z,981.83
2017-12-30T08:34:56.371Z,981.87
2017-12-30T08:36:49.241Z,981.72
2017-12-30T08:37:49.153Z,981.67
2017-12-30T08:39:42.105Z,981.58
2017-12-30T08:40:41.998Z,981.52
2017-12-30T08:42:35.964Z,981.38
2017-12-30T08:43:34.846Z,981.43
2017-12-30T08:45:27.758Z,981.44
2017-12-30T08:46:27.695Z,981.40
2017-12-30T08:48:20.647Z,981.26
2017-12-30T08:49:20.541Z,981.18
2017-12-30T08:51:13.970Z,981.10
2017-12-30T08:52:13.911Z,981.10
2017-12-30T08:54:06.893Z,981.13
2017-12-30T08:55:06.853Z,981.06
2017-12-30T08:56:59.769Z,980.83
2017-12-30T08:57:59.712Z,980.73
2017-12-30T08:59:52.587Z,980.91
2017-12-30T09:00:52.561Z,980.76
2017-12-30T09:02:45.475Z,981.10
2017-12-30T09:03:45.467Z,981.21
2017-12-30T09:05:39.380Z,980.99
2017-12-30T09:06:39.288Z,981.08
2017-12-30T09:08:32.196Z,980.87
2017-12-30T09:09:32.146Z,981.06
2017-12-30T09:11:25.089Z,980.90
2017-12-30T09:12:24.983Z,980.69
2017-12-30T09:14:17.901Z,980.09
2017-12-30T09:15:17.837Z,980.30
2017-12-30T09:17:10.785Z,980.86
2017-12-30T09:18:10.684Z,980.91
2017-12-30T09:20:03.597Z,981.02
2017-12-30T09:21:03.563Z,980.93
2017-12-30T09:22:56.432Z,981.04
2017-12-30T09:23:56.451Z,981.16
2017-12-30T09:25:49.299Z,981.11
2017-12-30T09:26:49.314Z,981.21
2017-12-30T09:28:42.194Z,980.75
2017-12-30T09:29:42.088Z,980.24
2017-12-30T09:31:35.001Z,980.90
2017-12-30T09:32:36.023Z,980.58
2017-12-30T09:34:27.822Z,980.71
2017-12-30T09:35:27.850Z,980.75
2017-12-30T09:37:20.740Z,980.76
2017-12-30T09:38:20.643Z,981.05
2017-12-30T09:40:13.523Z,980.76
2017-12-30T09:41:13.549Z,980.91
2017-12-30T09:43:06.410Z,981.21
2017-12-30T09:44:06.342Z,981.25
2017-12-30T09:45:59.291Z,981.05
2017-12-30T09:46:59.203Z,980.85
2017-12-30T09:48:52.106Z,981.01
2017-12-30T09:49:52.100Z,980.89
2017-12-30T09:51:44.992Z,980.89
2017-12-30T09:52:44.907Z,980.21
2017-12-30T09:54:37.837Z,981.51
2017-12-30T09:55:37.752Z,981.37
2017-12-30T09:57:30.624Z,981.22
2017-12-30T09:58:30.592Z,981.14
2017-12-30T10:00:23.505Z,980.96
2017-12-30T10:01:23.450Z,980.93
2017-12-30T10:03:16.324Z,981.11
2017-12-30T10:04:16.298Z,981.13
2017-12-30T10:06:09.217Z,981.05
2017-12-30T10:07:09.143Z,980.99
2017-12-30T10:09:02.088Z,980.96
2017-12-30T10:10:02.057Z,980.81
2017-12-30T10:11:54.867Z,980.92
2017-12-30T10:12:54.811Z,980.74
2017-12-30T10:14:47.641Z,980.81
2017-12-30T10:15:47.654Z,980.91
2017-12-30T10:17:40.545Z,980.98
2017-12-30T10:18:40.446Z,981.26
2017-12-30T10:20:33.330Z,981.15
2017-12-30T10:21:33.299Z,980.72
2017-12-30T10:23:26.239Z,980.66
2017-12-30T10:24:26.146Z,980.61
2017-12-30T10:26:19.028Z,980.46
2017-12-30T10:27:19.064Z,980.17
2017-12-30T10:29:11.982Z,980.39
2017-12-30T10:30:11.849Z,980.39
2017-12-30T10:32:04.796Z,980.86
2017-12-30T10:33:04.811Z,980.97
2017-12-30T10:34:57.612Z,980.83
2017-12-30T10:35:57.613Z,980.81
2017-12-30T10:37:50.427Z,980.79
2017-12-30T10:38:50.402Z,980.92
2017-12-30T10:40:43.346Z,980.95
2017-12-30T10:41:43.251Z,980.98
2017-12-30T10:43:36.196Z,981.00
2017-12-30T10:44:36.099Z,981.00
2017-12-30T10:46:29.016Z,980.84
2017-12-30T10:47:28.956Z,980.93
2017-12-30T10:49:21.866Z,980.95
2017-12-30T10:50:21.863Z,981.01
2017-12-30T10:52:14.766Z,981.04
2017-12-30T10:53:14.657Z,981.09
2017-12-30T10:55:07.571Z,981.10
2017-12-30T10:56:07.505Z,980.99
2017-12-30T10:58:00.449Z,981.11
2017-12-30T10:59:00.364Z,981.25
2017-12-30T11:00:53.303Z,981.23
2017-12-30T11:01:53.199Z,981.33
2017-12-30T11:03:46.114Z,981.17
2017-12-30T11:04:46.053Z,981.22
2017-12-30T11:06:39.005Z,981.35
2017-12-30T11:07:38.906Z,981.31
2017-12-30T11:09:31.847Z,981.35
2017-12-30T11:10:31.760Z,981.40
2017-12-30T11:12:24.702Z,981.37
2017-12-30T11:13:24.602Z,981.35
2017-12-30T11:15:17.549Z,981.30
2017-12-30T11:16:17.459Z,981.40
2017-12-30T11:18:10.405Z,981.35
2017-12-30T11:19:10.307Z,981.34
2017-12-30T11:21:03.212Z,981.36
2017-12-30T11:22:03.154Z,981.34
2017-12-30T11:23:56.103Z,981.43
2017-12-30T11:24:56.004Z,981.35
2017-12-30T11:26:49.974Z,981.31
2017-12-30T11:27:48.857Z,981.26
2017-12-30T11:29:41.807Z,981.20
2017-12-30T11:30:41.708Z,981.33
2017-12-30T11:32:35.679Z,981.29
2017-12-30T11:33:34.556Z,981.35
2017-12-30T11:35:27.462Z,981.50
2017-12-30T11:36:27.467Z,981.40
2017-12-30T11:38:20.307Z,981.48
2017-12-30T11:39:20.315Z,981.48
2017-12-30T11:41:13.162Z,981.35
2017-12-30T11:42:13.166Z,981.53
2017-12-30T11:44:06.088Z,981.52
2017-12-30T11:45:05.967Z,981.44
2017-12-30T11:46:58.866Z,981.60
2017-12-30T11:47:58.810Z,981.64
2017-12-30T11:49:51.687Z,981.61
2017-12-30T11:50:51.718Z,981.54
2017-12-30T11:52:44.569Z,981.74
2017-12-30T11:53:44.566Z,981.65
2017-12-30T11:55:37.418Z,981.64
2017-12-30T11:56:37.444Z,981.67
2017-12-30T11:58:30.243Z,981.66
2017-12-30T11:59:30.215Z,981.75
2017-12-30T12:01:23.172Z,981.76
2017-12-30T12:02:23.124Z,981.80
2017-12-30T12:04:15.942Z,981.80
2017-12-30T12:05:15.918Z,981.80
2017-12-30T12:07:08.814Z,981.76
2017-12-30T12:08:08.761Z,981.65
2017-12-30T12:10:02.183Z,981.73
2017-12-30T12:11:02.186Z,981.59
2017-12-30T12:12:55.072Z,981.75
2017-12-30T12:13:54.977Z,981.63
2017-12-30T12:15:47.880Z,981.68
2017-12-30T12:16:47.882Z,981.72
2017-12-30T12:18:40.728Z,981.57
2017-12-30T12:19:40.742Z,981.93
2017-12-30T12:21:33.588Z,981.71
2017-12-30T12:22:33.667Z,981.71
2017-12-30T12:24:26.946Z,981.91
2017-12-30T12:25:26.379Z,981.79
2017-12-30T12:27:19.298Z,981.82
2017-12-30T12:28:19.231Z,981.89
2017-12-30T12:30:12.176Z,981.94
2017-12-30T12:31:12.136Z,981.93
2017-12-30T12:33:05.028Z,981.92
2017-12-30T12:34:04.940Z,981.92
2017-12-30T12:35:57.882Z,981.99
2017-12-30T12:36:57.836Z,981.80
2017-12-30T12:38:50.659Z,981.67
2017-12-30T12:39:50.634Z,982.28
2017-12-30T12:41:43.536Z,982.04
2017-12-30T12:42:43.492Z,981.90
2017-12-30T12:44:36.364Z,981.94
2017-12-30T12:45:36.345Z,981.89
2017-12-30T12:47:29.281Z,982.00
2017-12-30T12:48:29.183Z,982.04
2017-12-30T12:50:22.116Z,982.12
2017-12-30T12:51:22.051Z,982.11
2017-12-30T12:53:15.027Z,982.09
2017-12-30T12:54:14.987Z,982.29
2017-12-30T12:56:07.893Z,982.34
2017-12-30T12:57:07.838Z,982.27
2017-12-30T12:59:00.730Z,982.29
2017-12-30T13:00:00.692Z,982.23
2017-12-30T13:01:53.620Z,982.36
2017-12-30T13:02:53.541Z,982.32
2017-12-30T13:04:46.420Z,982.40
2017-12-30T13:05:46.394Z,982.43
2017-12-30T13:07:40.314Z,982.45
2017-12-30T13:08:40.269Z,982.77
2017-12-30T13:10:33.173Z,982.68
2017-12-30T13:11:33.120Z,982.65
2017-12-30T13:13:25.995Z,982.87
2017-12-30T13:14:26.022Z,982.80
2017-12-30T13:16:18.869Z,982.87
2017-12-30T13:17:18.873Z,982.84
2017-12-30T13:19:11.699Z,982.85
2017-12-30T13:20:11.669Z,982.74
2017-12-30T13:22:04.606Z,983.03
2017-12-30T13:23:04.518Z,983.19
2017-12-30T13:24:57.464Z,982.96
2017-12-30T13:25:57.368Z,983.10
2017-12-30T13:27:50.265Z,983.20
2017-12-30T13:28:50.233Z,983.18
2017-12-30T13:30:43.122Z,983.18
2017-12-30T13:31:43.069Z,983.22
2017-12-30T13:33:36.012Z,983.15
2017-12-30T13:34:35.929Z,983.35
2017-12-30T13:36:28.824Z,983.68
2017-12-30T13:37:28.771Z,983.63
2017-12-30T13:39:21.650Z,983.51
2017-12-30T13:40:21.676Z,983.48
2017-12-30T13:42:14.570Z,983.55
2017-12-30T13:43:14.477Z,983.60
2017-12-30T13:45:07.519Z,983.62
2017-12-30T13:46:07.419Z,983.48
2017-12-30T13:48:00.301Z,983.48
2017-12-30T13:49:00.271Z,983.56
2017-12-30T13:50:53.220Z,983.69
2017-12-30T13:51:53.140Z,983.75
2017-12-30T13:53:46.001Z,983.75
2017-12-30T13:54:45.973Z,983.81
2017-12-30T13:56:38.921Z,983.76
2017-12-30T13:57:38.827Z,983.94
2017-12-30T13:59:31.715Z,983.67
2017-12-30T14:00:31.676Z,983.66
2017-12-30T14:02:24.583Z,983.66
2017-12-30T14:03:24.528Z,983.84
2017-12-30T14:05:17.483Z,983.90
2017-12-30T14:06:17.376Z,983.96
2017-12-30T14:08:10.326Z,983.95
2017-12-30T14:09:10.231Z,984.03
2017-12-30T14:11:03.131Z,984.53
2017-12-30T14:12:03.087Z,984.09
2017-12-30T14:13:55.957Z,984.19
2017-12-30T14:14:55.985Z,984.24
2017-12-30T14:16:48.875Z,984.24
2017-12-30T14:17:48.783Z,984.25
2017-12-30T14:19:41.666Z,984.27
2017-12-30T14:20:41.695Z,984.44
2017-12-30T14:22:34.530Z,984.44
2017-12-30T14:23:34.486Z,984.24
2017-12-30T14:25:27.423Z,984.32
2017-12-30T14:26:27.335Z,984.38
2017-12-30T14:28:20.211Z,984.52
2017-12-30T14:29:20.180Z,984.37
2017-12-30T14:31:13.128Z,984.40
2017-12-30T14:32:13.040Z,984.52
2017-12-30T14:34:05.914Z,984.77
2017-12-30T14:35:05.942Z,984.62
2017-12-30T14:36:58.787Z,984.74
2017-12-30T14:37:58.735Z,984.65
2017-12-30T14:39:51.612Z,984.67
2017-12-30T14:40:51.651Z,984.76
2017-12-30T14:42:44.482Z,984.84
2017-12-30T14:43:44.446Z,984.88
2017-12-30T14:45:37.286Z,984.76
2017-12-30T14:46:37.238Z,984.76
2017-12-30T14:48:30.059Z,984.88
2017-12-30T14:49:30.028Z,984.95
2017-12-30T14:51:22.877Z,985.27
2017-12-30T14:52:22.823Z,984.86
2017-12-30T14:54:15.667Z,985.07
2017-12-30T14:55:15.630Z,985.08
2017-12-30T14:57:08.466Z,985.06
2017-12-30T14:58:08.415Z,985.10
2017-12-30T15:00:01.527Z,985.00
2017-12-30T15:01:01.437Z,984.99
2017-12-30T15:02:54.318Z,984.95
2017-12-30T15:03:54.339Z,985.02
2017-12-30T15:05:47.186Z,985.09
2017-12-30T15:06:47.192Z,985.39
2017-12-30T15:08:40.015Z,985.20
2017-12-30T15:09:40.029Z,985.27
2017-12-30T15:11:32.890Z,985.38
2017-12-30T15:12:32.844Z,985.39
2017-12-30T15:14:25.745Z,985.49
2017-12-30T15:15:25.686Z,985.49
2017-12-30T15:17:18.628Z,985.49
2017-12-30T15:18:18.546Z,985.55
2017-12-30T15:20:11.481Z,985.71
2017-12-30T15:21:11.391Z,985.67
2017-12-30T15:23:04.339Z,985.62
2017-12-30T15:24:04.237Z,985.64
2017-12-30T15:25:57.150Z,985.74
2017-12-30T15:26:57.095Z,985.74
2017-12-30T15:28:49.969Z,985.58
2017-12-30T15:29:49.936Z,985.70
2017-12-30T15:31:42.888Z,985.48
2017-12-30T15:32:42.799Z,985.57
2017-12-30T15:34:35.734Z,985.61
2017-12-30T15:35:35.643Z,985.69
2017-12-30T15:37:28.546Z,985.87
2017-12-30T15:38:28.493Z,985.74
2017-12-30T15:40:21.404Z,985.96
2017-12-30T15:41:21.360Z,985.94
2017-12-30T15:43:14.229Z,986.11
2017-12-30T15:44:14.246Z,986.07
2017-12-30T15:46:07.091Z,986.01
2017-12-30T15:47:07.048Z,985.94
2017-12-30T15:48:59.984Z,986.07
2017-12-30T15:49:59.896Z,985.88
2017-12-30T15:51:52.798Z,985.83
2017-12-30T15:52:52.761Z,985.88
2017-12-30T15:54:45.625Z,986.17
2017-12-30T15:55:45.592Z,986.00
2017-12-30T15:57:38.538Z,985.96
2017-12-30T15:58:38.440Z,986.00
2017-12-30T16:00:31.386Z,985.99
2017-12-30T16:01:31.297Z,985.93
2017-12-30T16:03:24.242Z,986.15
2017-12-30T16:04:24.148Z,986.04
2017-12-30T16:06:17.085Z,986.22
2017-12-30T16:07:16.997Z,986.21
2017-12-30T16:09:09.872Z,986.31
2017-12-30T16:10:09.854Z,986.22
2017-12-30T16:12:03.776Z,986.15
2017-12-30T16:13:03.729Z,986.17
2017-12-30T16:14:56.668Z,986.15
2017-12-30T16:15:56.575Z,986.05
2017-12-30T16:17:49.521Z,986.32
2017-12-30T16:18:49.424Z,986.33
2017-12-30T16:20:42.570Z,986.37
2017-12-30T16:21:42.370Z,986.50
2017-12-30T16:23:35.250Z,986.29
2017-12-30T16:24:35.381Z,986.47
2017-12-30T16:26:28.221Z,986.41
2017-12-30T16:27:28.175Z,986.55
2017-12-30T16:29:21.150Z,986.47
2017-12-30T16:30:21.129Z,986.64
2017-12-30T16:32:14.130Z,986.53
2017-12-30T16:33:14.081Z,986.47
2017-12-30T16:35:07.129Z,986.50
2017-12-30T16:36:06.959Z,986.60
2017-12-30T16:37:59.915Z,986.78
2017-12-30T16:39:00.058Z,986.70
2017-12-30T16:40:52.822Z,986.67
2017-12-30T16:41:52.896Z,986.68
2017-12-30T16:43:45.644Z,986.73
2017-12-30T16:44:45.747Z,986.80
2017-12-30T16:46:39.565Z,986.87
2017-12-30T16:47:39.140Z,987.01
2017-12-30T16:49:32.199Z,986.86
2017-12-30T16:50:31.999Z,986.93
2017-12-30T16:52:24.862Z,987.04
2017-12-30T16:53:24.805Z,986.88
2017-12-30T16:55:17.652Z,986.93
2017-12-30T16:56:17.614Z,987.08
2017-12-30T16:58:10.422Z,987.26
2017-12-30T16:59:10.389Z,987.19
2017-12-30T17:01:03.235Z,987.18
2017-12-30T17:02:03.180Z,987.10
2017-12-30T17:03:56.007Z,987.18
2017-12-30T17:04:55.985Z,987.20
2017-12-30T17:06:48.833Z,987.28
2017-12-30T17:07:48.779Z,987.35
2017-12-30T17:09:42.087Z,987.23
2017-12-30T17:10:41.860Z,987.27
2017-12-30T17:12:34.714Z,987.18
2017-12-30T17:13:34.650Z,987.59
2017-12-30T17:15:27.849Z,987.42
2017-12-30T17:16:27.661Z,987.29
2017-12-30T17:18:20.651Z,987.15
2017-12-30T17:19:20.770Z,987.24
2017-12-30T17:21:13.615Z,987.17
2017-12-30T17:22:13.721Z,987.19
2017-12-30T17:24:06.542Z,987.17
2017-12-30T17:25:06.517Z,987.22
2017-12-30T17:26:59.518Z,987.19
2017-12-30T17:27:59.464Z,987.11
2017-12-30T17:29:52.304Z,987.20
2017-12-30T17:30:52.272Z,987.57
2017-12-30T17:32:45.114Z,987.16
2017-12-30T17:33:45.068Z,987.20
2017-12-30T17:35:37.905Z,987.15
2017-12-30T17:36:37.856Z,987.20
2017-12-30T17:38:30.963Z,987.30
2017-12-30T17:39:30.880Z,987.35
2017-12-30T17:41:23.874Z,987.51
2017-12-30T17:42:23.820Z,987.71
2017-12-30T17:44:16.699Z,987.49
2017-12-30T17:45:16.678Z,987.48
2017-12-30T17:47:09.787Z,987.64
2017-12-30T17:48:09.700Z,987.48
2017-12-30T17:50:02.508Z,987.48
2017-12-30T17:51:02.464Z,987.55
2017-12-30T17:52:55.378Z,987.44
2017-12-30T17:53:55.329Z,987.42
2017-12-30T17:55:48.373Z,987.50
2017-12-30T17:56:48.185Z,987.51
2017-12-30T17:58:41.223Z,987.63
2017-12-30T17:59:41.135Z,987.49